createdAt,value
2022-09-14T00:01:26.924Z,100893.06
2022-09-14T00:03:56.624Z,100892.59
2022-09-14T00:06:23.865Z,100879.97
2022-09-14T00:08:55.161Z,100888.72
2022-09-14T00:11:23.844Z,100878.28
2022-09-14T00:13:50.640Z,100883.19
2022-09-14T00:16:24.679Z,100883.81
2022-09-14T00:18:56.736Z,100878.28
2022-09-14T00:21:27.620Z,100883.31
2022-09-14T00:23:54.203Z,100859.91
2022-09-14T00:26:23.251Z,100851.56
2022-09-14T00:28:58.531Z,100864.72
2022-09-14T00:31:26.349Z,100871.97
2022-09-14T00:33:53.919Z,100860.88
2022-09-14T00:36:23.637Z,100860.88
2022-09-14T00:38:51.719Z,100853.81
2022-09-14T00:41:25.266Z,100855.28
2022-09-14T00:43:56.888Z,100856.13
2022-09-14T00:46:24.629Z,100848.69
2022-09-14T00:48:54.486Z,100837.41
2022-09-14T00:51:25.023Z,100848.44
2022-09-14T00:53:52.023Z,100837.34
2022-09-14T00:56:18.952Z,100823.75
2022-09-14T00:58:49.664Z,100828.47
2022-09-14T01:01:16.959Z,100828.59
2022-09-14T01:03:43.601Z,100828.22
2022-09-14T01:06:29.266Z,100829.72
2022-09-14T01:08:55.728Z,100828.22
2022-09-14T01:11:32.051Z,100814.56
2022-09-14T01:14:23.446Z,100824.78
2022-09-14T01:17:25.749Z,100811.31
2022-09-14T01:20:07.955Z,100814.94
2022-09-14T01:22:50.432Z,100803.25
2022-09-14T01:25:34.342Z,100814.28
2022-09-14T01:28:10.470Z,100807.91
2022-09-14T01:30:42.193Z,100801.28
2022-09-14T01:33:17.482Z,100806.78
2022-09-14T01:35:51.103Z,100808.22
2022-09-14T01:38:26.622Z,100795.00
2022-09-14T01:41:00.607Z,100787.75
2022-09-14T01:43:41.189Z,100800.06
2022-09-14T01:46:17.760Z,100785.56
2022-09-14T01:49:19.839Z,100788.50
2022-09-14T01:51:47.980Z,100773.56
2022-09-14T01:54:22.706Z,100780.31
2022-09-14T01:56:56.707Z,100783.66
2022-09-14T01:59:31.520Z,100785.75
2022-09-14T02:02:09.263Z,100783.47
2022-09-14T02:04:57.868Z,100779.44
2022-09-14T02:07:24.999Z,100759.16
2022-09-14T02:09:53.518Z,100764.75
2022-09-14T02:12:22.645Z,100772.16
2022-09-14T02:14:51.477Z,100766.16
2022-09-14T02:17:20.380Z,100775.56
2022-09-14T02:19:56.969Z,100776.59
2022-09-14T02:22:25.187Z,100779.34
2022-09-14T02:24:52.290Z,100789.34
2022-09-14T02:27:18.800Z,100777.19
2022-09-14T02:29:45.716Z,100775.88
2022-09-14T02:32:18.696Z,100784.22
2022-09-14T02:34:45.157Z,100785.94
2022-09-14T02:37:31.924Z,100786.78
2022-09-14T02:40:34.325Z,100786.03
2022-09-14T02:43:03.847Z,100777.47
2022-09-14T02:45:58.316Z,100765.13
2022-09-14T02:48:48.563Z,100769.41
2022-09-14T02:51:35.874Z,100776.88
2022-09-14T02:54:24.927Z,100766.75
2022-09-14T02:56:56.048Z,100771.00
2022-09-14T02:59:22.595Z,100769.41
2022-09-14T03:01:49.206Z,100754.47
2022-09-14T03:04:15.752Z,100753.81
2022-09-14T03:06:42.277Z,100753.06
2022-09-14T03:09:09.047Z,100767.69
2022-09-14T03:11:35.605Z,100761.16
2022-09-14T03:14:04.316Z,100762.00
2022-09-14T03:16:30.843Z,100760.47
2022-09-14T03:18:57.555Z,100749.56
2022-09-14T03:21:26.423Z,100747.19
2022-09-14T03:23:57.896Z,100753.00
2022-09-14T03:26:26.645Z,100748.53
2022-09-14T03:28:59.183Z,100747.50
2022-09-14T03:31:27.669Z,100729.16
2022-09-14T03:33:56.483Z,100730.38
2022-09-14T03:36:25.477Z,100732.69
2022-09-14T03:38:55.641Z,100731.94
2022-09-14T03:41:25.596Z,100736.75
2022-09-14T03:43:52.357Z,100737.44
2022-09-14T03:46:25.724Z,100741.50
2022-09-14T03:48:54.569Z,100729.84
2022-09-14T03:51:21.582Z,100722.63
2022-09-14T03:53:53.316Z,100716.25
2022-09-14T03:56:23.158Z,100719.22
2022-09-14T03:58:52.691Z,100723.28
2022-09-14T04:01:21.905Z,100713.50
2022-09-14T04:03:49.496Z,100724.34
2022-09-14T04:06:17.381Z,100719.13
2022-09-14T04:08:45.654Z,100714.19
2022-09-14T04:11:20.656Z,100706.22
2022-09-14T04:13:47.843Z,100708.13
2022-09-14T04:16:21.075Z,100712.56
2022-09-14T04:18:51.504Z,100709.91
2022-09-14T04:21:21.118Z,100698.44
2022-09-14T04:26:34.616Z,100694.84
2022-09-14T04:29:01.431Z,100696.25
2022-09-14T04:31:28.708Z,100690.75
2022-09-14T04:33:57.207Z,100694.16
2022-09-14T04:36:28.630Z,100694.66
2022-09-14T04:38:59.410Z,100696.25
2022-09-14T04:41:29.663Z,100685.81
2022-09-14T04:43:59.458Z,100673.00
2022-09-14T04:46:29.233Z,100680.50
2022-09-14T04:48:55.900Z,100676.25
2022-09-14T04:51:25.902Z,100668.56
2022-09-14T04:53:56.314Z,100668.84
2022-09-14T04:56:24.069Z,100666.09
2022-09-14T04:58:53.858Z,100664.69
2022-09-14T05:01:23.365Z,100663.25
2022-09-14T05:03:50.987Z,100669.69
2022-09-14T05:06:23.387Z,100668.00
2022-09-14T05:08:51.235Z,100666.28
2022-09-14T05:11:22.833Z,100661.53
2022-09-14T05:13:50.640Z,100670.47
2022-09-14T05:16:23.313Z,100672.84
2022-09-14T05:18:53.424Z,100681.09
2022-09-14T05:21:21.094Z,100675.28
2022-09-14T05:23:52.647Z,100682.13
2022-09-14T05:26:22.287Z,100663.25
2022-09-14T05:28:53.942Z,100666.91
2022-09-14T05:31:23.910Z,100685.16
2022-09-14T05:33:51.326Z,100684.13
2022-09-14T05:36:18.041Z,100680.22
2022-09-14T05:38:44.819Z,100671.13
2022-09-14T05:41:13.192Z,100687.91
2022-09-14T05:43:40.299Z,100683.44
2022-09-14T05:46:14.049Z,100673.13
2022-09-14T05:48:41.094Z,100673.31
2022-09-14T05:51:17.712Z,100652.34
2022-09-14T05:53:55.068Z,100687.16
2022-09-14T05:56:23.812Z,100690.94
2022-09-14T05:58:53.690Z,100693.50
2022-09-14T06:01:26.283Z,100692.38
2022-09-14T06:03:54.898Z,100694.94
2022-09-14T06:06:22.509Z,100696.81
2022-09-14T06:08:55.702Z,100695.59
2022-09-14T06:11:28.641Z,100701.09
2022-09-14T06:13:56.062Z,100691.31
2022-09-14T06:16:24.390Z,100699.88
2022-09-14T06:18:51.704Z,100692.00
2022-09-14T06:21:20.516Z,100697.41
2022-09-14T06:23:48.769Z,100696.16
2022-09-14T06:26:16.249Z,100693.97
2022-09-14T06:28:43.339Z,100685.94
2022-09-14T06:31:13.308Z,100692.56
2022-09-14T06:33:47.104Z,100687.69
2022-09-14T06:36:17.879Z,100681.34
2022-09-14T06:38:44.458Z,100683.81
2022-09-14T06:41:13.409Z,100684.66
2022-09-14T06:43:41.677Z,100674.69
2022-09-14T06:46:13.452Z,100675.19
2022-09-14T06:48:50.098Z,100680.13
2022-09-14T06:51:19.874Z,100682.69
2022-09-14T06:53:47.619Z,100680.13
2022-09-14T06:56:15.410Z,100671.47
2022-09-14T06:58:42.321Z,100667.50
2022-09-14T07:01:12.383Z,100662.34
2022-09-14T07:03:39.629Z,100655.44
2022-09-14T07:06:09.856Z,100681.81
2022-09-14T07:08:37.829Z,100680.59
2022-09-14T07:11:07.250Z,100672.72
2022-09-14T07:13:34.267Z,100666.94
2022-09-14T07:16:00.918Z,100670.91
2022-09-14T07:18:31.937Z,100668.34
2022-09-14T07:21:12.030Z,100668.53
2022-09-14T07:23:43.111Z,100654.22
2022-09-14T07:26:15.768Z,100660.75
2022-09-14T07:28:43.584Z,100664.38
2022-09-14T07:31:28.562Z,100646.91
2022-09-14T07:33:57.320Z,100650.72
2022-09-14T07:36:25.663Z,100657.91
2022-09-14T07:38:56.124Z,100653.28
2022-09-14T07:41:25.410Z,100663.22
2022-09-14T07:43:53.896Z,100661.34
2022-09-14T07:46:21.588Z,100639.91
2022-09-14T07:48:49.172Z,100646.53
2022-09-14T07:51:17.926Z,100642.38
2022-09-14T07:53:44.495Z,100644.72
2022-09-14T07:56:12.556Z,100631.38
2022-09-14T07:58:39.567Z,100639.81
2022-09-14T08:01:08.963Z,100653.84
2022-09-14T08:03:42.061Z,100647.78
2022-09-14T08:06:20.061Z,100657.16
2022-09-14T08:08:48.735Z,100642.84
2022-09-14T08:11:37.297Z,100643.03
2022-09-14T08:14:13.986Z,100656.78
2022-09-14T08:16:43.153Z,100661.41
2022-09-14T08:19:18.356Z,100649.00
2022-09-14T08:21:47.715Z,100643.50
2022-09-14T08:24:17.626Z,100648.69
2022-09-14T08:26:44.490Z,100649.66
2022-09-14T08:29:14.893Z,100652.19
2022-09-14T08:31:43.268Z,100649.72
2022-09-14T08:34:09.906Z,100614.38
2022-09-14T08:36:38.945Z,100657.19
2022-09-14T08:39:09.252Z,100651.88
2022-09-14T08:41:38.337Z,100655.91
2022-09-14T08:44:19.614Z,100646.81
2022-09-14T08:46:55.602Z,100655.16
2022-09-14T08:49:59.182Z,100654.03
2022-09-14T08:52:31.261Z,100650.56
2022-09-14T08:55:02.851Z,100646.19
2022-09-14T08:57:48.322Z,100650.16
2022-09-14T09:00:47.068Z,100652.06
2022-09-14T09:03:36.499Z,100657.31
2022-09-14T09:06:15.663Z,100654.31
2022-09-14T09:08:58.153Z,100659.75
2022-09-14T09:11:39.692Z,100651.19
2022-09-14T09:14:18.509Z,100660.91
2022-09-14T09:16:50.236Z,100655.22
2022-09-14T09:19:40.096Z,100641.69
2022-09-14T09:22:17.350Z,100657.84
2022-09-14T09:24:51.228Z,100662.50
2022-09-14T09:27:17.763Z,100663.53
2022-09-14T09:29:45.092Z,100659.06
2022-09-14T09:32:18.491Z,100643.53
2022-09-14T09:34:47.451Z,100650.72
2022-09-14T09:37:16.974Z,100631.00
2022-09-14T09:39:46.675Z,100635.94
2022-09-14T09:42:24.677Z,100643.47
2022-09-14T09:45:03.603Z,100641.00
2022-09-14T09:47:33.490Z,100642.09
2022-09-14T09:50:06.231Z,100636.69
2022-09-14T09:52:33.254Z,100651.97
2022-09-14T09:55:04.416Z,100630.75
2022-09-14T09:57:34.224Z,100636.69
2022-09-14T10:00:24.334Z,100626.56
2022-09-14T10:02:51.757Z,100628.69
2022-09-14T10:05:18.209Z,100637.88
2022-09-14T10:07:50.445Z,100633.66
2022-09-14T10:10:19.896Z,100619.63
2022-09-14T10:12:51.283Z,100625.50
2022-09-14T10:15:25.876Z,100623.06
2022-09-14T10:18:14.788Z,100625.19
2022-09-14T10:20:51.804Z,100627.91
2022-09-14T10:23:18.246Z,100630.47
2022-09-14T10:25:49.616Z,100632.19
2022-09-14T10:28:31.782Z,100604.50
2022-09-14T10:31:07.312Z,100632.63
2022-09-14T10:33:37.000Z,100632.22
2022-09-14T10:36:21.980Z,100632.25
2022-09-14T10:38:58.627Z,100639.09
2022-09-14T10:42:03.804Z,100629.34
2022-09-14T10:44:59.552Z,100635.06
2022-09-14T10:47:51.128Z,100635.31
2022-09-14T10:50:36.395Z,100632.34
2022-09-14T10:53:23.116Z,100630.69
2022-09-14T10:56:14.132Z,100625.63
2022-09-14T10:58:47.568Z,100630.09
2022-09-14T11:01:47.783Z,100629.66
2022-09-14T11:04:23.405Z,100630.75
2022-09-14T11:07:08.115Z,100629.72
2022-09-14T11:09:50.035Z,100629.38
2022-09-14T11:12:36.249Z,100629.38
2022-09-14T11:15:15.087Z,100633.84
2022-09-14T11:18:09.276Z,100629.78
2022-09-14T11:20:42.574Z,100633.63
2022-09-14T11:23:19.544Z,100636.78
2022-09-14T11:25:53.138Z,100629.19
2022-09-14T11:28:28.058Z,100630.66
2022-09-14T11:31:34.141Z,100638.63
2022-09-14T11:34:19.909Z,100638.38
2022-09-14T11:36:50.838Z,100629.41
2022-09-14T11:39:20.363Z,100626.91
2022-09-14T11:41:56.062Z,100625.06
2022-09-14T11:44:41.691Z,100627.88
2022-09-14T11:47:18.876Z,100618.28
2022-09-14T11:50:14.373Z,100624.69
2022-09-14T11:52:40.924Z,100620.59
2022-09-14T11:55:16.665Z,100627.34
2022-09-14T11:57:45.867Z,100620.75
2022-09-14T12:00:43.463Z,100633.91
2022-09-14T12:03:24.202Z,100616.00
2022-09-14T12:05:53.351Z,100603.00
2022-09-14T12:08:32.060Z,100610.13
2022-09-14T12:11:09.802Z,100613.28
2022-09-14T12:13:37.147Z,100611.50
2022-09-14T12:16:08.666Z,100608.13
2022-09-14T12:18:40.186Z,100602.34
2022-09-14T12:21:19.822Z,100601.56
2022-09-14T12:23:53.282Z,100609.91
2022-09-14T12:26:22.664Z,100607.41
2022-09-14T12:28:52.421Z,100603.81
2022-09-14T12:31:59.897Z,100601.25
2022-09-14T12:34:33.099Z,100599.38
2022-09-14T12:37:30.213Z,100604.53
2022-09-14T12:40:20.197Z,100598.44
2022-09-14T12:42:46.957Z,100602.47
2022-09-14T12:46:09.986Z,100597.56
2022-09-14T12:48:48.461Z,100585.31
2022-09-14T12:51:27.062Z,100583.25
2022-09-14T12:54:08.915Z,100571.44
2022-09-14T12:56:46.584Z,100574.72
2022-09-14T12:59:15.860Z,100584.03
2022-09-14T13:02:21.922Z,100578.91
2022-09-14T13:04:53.920Z,100575.13
2022-09-14T13:07:22.948Z,100577.47
2022-09-14T13:09:55.133Z,100563.19
2022-09-14T13:12:43.650Z,100571.91
2022-09-14T13:15:31.598Z,100576.56
2022-09-14T13:18:28.440Z,100564.84
2022-09-14T13:20:57.612Z,100586.94
2022-09-14T13:23:41.547Z,100584.78
2022-09-14T13:26:16.328Z,100545.19
2022-09-14T13:28:45.773Z,100572.28
2022-09-14T13:31:17.803Z,100573.94
2022-09-14T13:33:53.107Z,100565.50
2022-09-14T13:36:23.840Z,100577.44
2022-09-14T13:38:51.277Z,100573.84
2022-09-14T13:41:22.852Z,100563.84
2022-09-14T13:43:54.615Z,100559.13
2022-09-14T13:46:26.378Z,100575.06
2022-09-14T13:48:54.005Z,100571.78
2022-09-14T13:51:31.475Z,100567.09
2022-09-14T13:54:18.048Z,100575.81
2022-09-14T13:56:44.718Z,100550.66
2022-09-14T13:59:20.912Z,100573.84
2022-09-14T14:01:53.698Z,100581.19
2022-09-14T14:04:29.922Z,100574.19
2022-09-14T14:07:09.461Z,100563.97
2022-09-14T14:12:50.767Z,100554.03
2022-09-14T14:15:18.904Z,100547.25
2022-09-14T14:17:50.325Z,100557.25
2022-09-14T14:20:26.175Z,100557.47
2022-09-14T14:23:06.443Z,100542.13
2022-09-14T14:25:45.686Z,100543.19
2022-09-14T14:28:32.585Z,100524.28
2022-09-14T14:31:08.571Z,100541.28
2022-09-14T14:33:37.021Z,100540.47
2022-09-14T14:36:09.396Z,100537.50
2022-09-14T14:38:36.334Z,100530.03
2022-09-14T14:41:06.231Z,100529.88
2022-09-14T14:43:32.848Z,100528.59
2022-09-14T14:46:01.316Z,100529.66
2022-09-14T14:48:28.868Z,100529.03
2022-09-14T14:50:58.099Z,100529.22
2022-09-14T14:53:26.472Z,100531.34
2022-09-14T14:55:55.531Z,100538.13
2022-09-14T14:58:23.652Z,100528.53
2022-09-14T15:00:51.071Z,100527.06
2022-09-14T15:03:22.325Z,100518.97
2022-09-14T15:05:49.820Z,100519.81
2022-09-14T15:08:19.922Z,100511.34
2022-09-14T15:10:47.612Z,100511.53
2022-09-14T15:13:14.236Z,100504.28
2022-09-14T15:15:42.928Z,100509.59
2022-09-14T15:18:09.571Z,100512.16
2022-09-14T15:20:36.186Z,100501.53
2022-09-14T15:23:05.526Z,100501.78
2022-09-14T15:25:32.082Z,100512.88
2022-09-14T15:28:01.228Z,100503.53
2022-09-14T15:30:27.722Z,100512.06
2022-09-14T15:32:57.020Z,100525.03
2022-09-14T15:35:23.867Z,100505.28
2022-09-14T15:37:52.648Z,100512.06
2022-09-14T15:40:19.311Z,100505.72
2022-09-14T15:42:45.966Z,100508.69
2022-09-14T15:45:13.000Z,100508.28
2022-09-14T15:47:42.254Z,100502.94
2022-09-14T15:50:09.224Z,100505.72
2022-09-14T15:52:38.111Z,100500.59
2022-09-14T15:55:07.194Z,100509.97
2022-09-14T15:57:34.277Z,100522.50
2022-09-14T16:00:01.218Z,100518.47
2022-09-14T16:02:30.311Z,100526.97
2022-09-14T16:04:56.862Z,100525.25
2022-09-14T16:07:24.302Z,100526.97
2022-09-14T16:09:50.912Z,100534.59
2022-09-14T16:12:17.429Z,100526.28
2022-09-14T16:14:43.924Z,100538.44
2022-09-14T16:17:12.992Z,100539.25
2022-09-14T16:19:39.657Z,100528.19
2022-09-14T16:22:06.359Z,100540.53
2022-09-14T16:24:33.581Z,100543.50
2022-09-14T16:27:00.393Z,100552.66
2022-09-14T16:29:26.937Z,100557.09
2022-09-14T16:31:54.260Z,100561.13
2022-09-14T16:34:28.264Z,100551.31
2022-09-14T16:36:58.777Z,100566.78
2022-09-14T16:39:28.528Z,100562.56
2022-09-14T16:41:55.924Z,100561.25
2022-09-14T16:44:24.555Z,100554.88
2022-09-14T16:46:55.439Z,100568.88
2022-09-14T16:49:26.990Z,100563.97
2022-09-14T16:51:57.239Z,100571.41
2022-09-14T16:54:25.563Z,100570.13
2022-09-14T16:56:56.056Z,100571.41
2022-09-14T16:59:23.221Z,100568.84
2022-09-14T17:01:54.322Z,100573.94
2022-09-14T17:04:22.113Z,100569.88
2022-09-14T17:06:50.471Z,100564.03
2022-09-14T17:09:23.299Z,100567.03
2022-09-14T17:11:50.238Z,100572.97
2022-09-14T17:14:19.777Z,100566.34
2022-09-14T17:16:46.828Z,100564.41
2022-09-14T17:19:14.388Z,100573.75
2022-09-14T17:21:45.460Z,100572.00
2022-09-14T17:24:12.976Z,100570.31
2022-09-14T17:26:44.408Z,100567.28
2022-09-14T17:29:11.763Z,100560.63
2022-09-14T17:31:41.453Z,100578.47
2022-09-14T17:34:13.492Z,100583.53
2022-09-14T17:36:40.261Z,100577.59
2022-09-14T17:39:11.539Z,100570.16
2022-09-14T17:41:39.519Z,100568.41
2022-09-14T17:44:07.370Z,100567.34
2022-09-14T17:46:34.807Z,100566.91
2022-09-14T17:49:04.241Z,100569.22
2022-09-14T17:51:32.507Z,100561.94
2022-09-14T17:54:01.145Z,100566.16
2022-09-14T17:56:29.734Z,100573.31
2022-09-14T17:59:06.103Z,100568.81
2022-09-14T18:01:33.613Z,100566.84
2022-09-14T18:04:07.585Z,100567.66
2022-09-14T18:06:38.525Z,100575.59
2022-09-14T18:09:09.582Z,100582.75
2022-09-14T18:11:37.503Z,100576.50
2022-09-14T18:14:04.824Z,100571.25
2022-09-14T18:16:31.939Z,100568.78
2022-09-14T18:18:58.738Z,100576.97
2022-09-14T18:21:26.489Z,100576.13
2022-09-14T18:23:56.244Z,100577.56
2022-09-14T18:26:26.564Z,100582.59
2022-09-14T18:28:58.554Z,100576.31
2022-09-14T18:31:26.030Z,100594.13
2022-09-14T18:33:55.446Z,100594.03
2022-09-14T18:36:26.409Z,100590.00
2022-09-14T18:38:55.364Z,100594.63
2022-09-14T18:41:22.051Z,100594.06
2022-09-14T18:43:51.132Z,100610.59
2022-09-14T18:46:18.720Z,100610.13
2022-09-14T18:48:45.382Z,100620.94
2022-09-14T18:51:14.076Z,100620.66
2022-09-14T18:53:46.185Z,100615.16
2022-09-14T18:56:14.583Z,100614.00
2022-09-14T18:58:43.852Z,100614.97
2022-09-14T19:01:13.832Z,100621.16
2022-09-14T19:03:44.107Z,100616.41
2022-09-14T19:06:13.524Z,100614.69
2022-09-14T19:08:43.317Z,100617.63
2022-09-14T19:11:23.811Z,100614.56
2022-09-14T19:14:00.301Z,100623.66
2022-09-14T19:16:27.711Z,100617.88
2022-09-14T19:18:57.029Z,100616.56
2022-09-14T19:21:29.376Z,100615.88
2022-09-14T19:24:05.002Z,100623.75
2022-09-14T19:26:35.102Z,100623.19
2022-09-14T19:29:05.068Z,100628.69
2022-09-14T19:31:34.704Z,100630.38
2022-09-14T19:34:03.518Z,100625.34
2022-09-14T19:36:34.869Z,100630.47
2022-09-14T19:39:02.420Z,100635.47
2022-09-14T19:41:30.845Z,100632.63
2022-09-14T19:43:57.862Z,100639.84
2022-09-14T19:46:24.484Z,100637.28
2022-09-14T19:48:52.081Z,100634.06
2022-09-14T19:51:23.083Z,100640.78
2022-09-14T19:53:51.848Z,100627.94
2022-09-14T19:56:20.890Z,100632.41
2022-09-14T19:58:54.332Z,100628.50
2022-09-14T20:01:23.425Z,100640.00
2022-09-14T20:03:50.120Z,100646.53
2022-09-14T20:06:35.781Z,100650.31
2022-09-14T20:09:08.255Z,100648.97
2022-09-14T20:11:40.014Z,100641.59
2022-09-14T20:14:10.186Z,100641.09
2022-09-14T20:16:39.266Z,100661.66
2022-09-14T20:19:12.130Z,100653.41
2022-09-14T20:21:41.996Z,100654.19
2022-09-14T20:24:17.475Z,100666.13
2022-09-14T20:26:46.453Z,100656.53
2022-09-14T20:29:13.784Z,100673.34
2022-09-14T20:31:40.302Z,100666.50
2022-09-14T20:34:07.340Z,100656.25
2022-09-14T20:36:34.172Z,100652.16
2022-09-14T20:39:00.903Z,100664.47
2022-09-14T20:41:31.984Z,100663.63
2022-09-14T20:43:58.937Z,100676.47
2022-09-14T20:46:28.055Z,100664.22
2022-09-14T20:48:54.978Z,100667.47
2022-09-14T20:51:22.984Z,100674.47
2022-09-14T20:53:49.547Z,100676.38
2022-09-14T20:56:20.681Z,100686.66
2022-09-14T20:58:47.909Z,100676.03
2022-09-14T21:01:19.829Z,100683.72
2022-09-14T21:03:48.296Z,100688.81
2022-09-14T21:06:29.305Z,100689.69
2022-09-14T21:08:59.893Z,100684.75
2022-09-14T21:11:27.388Z,100682.19
2022-09-14T21:13:55.682Z,100699.50
2022-09-14T21:16:26.885Z,100702.16
2022-09-14T21:19:00.183Z,100691.16
2022-09-14T21:21:31.781Z,100695.44
2022-09-14T21:24:02.101Z,100687.19
2022-09-14T21:26:32.090Z,100689.06
2022-09-14T21:29:00.583Z,100699.03
2022-09-14T21:31:31.055Z,100703.69
2022-09-14T21:33:59.427Z,100698.38
2022-09-14T21:36:29.303Z,100692.41
2022-09-14T21:38:59.860Z,100693.59
2022-09-14T21:41:28.995Z,100703.56
2022-09-14T21:43:57.334Z,100710.31
2022-09-14T21:46:24.960Z,100705.69
2022-09-14T21:48:54.572Z,100708.28
2022-09-14T21:51:24.111Z,100702.25
2022-09-14T21:54:00.150Z,100715.44
2022-09-14T21:56:33.401Z,100719.38
2022-09-14T21:59:02.457Z,100719.19
2022-09-14T22:01:30.171Z,100719.00
2022-09-14T22:03:59.897Z,100705.44
2022-09-14T22:06:30.933Z,100715.69
2022-09-14T22:08:59.928Z,100713.09
2022-09-14T22:11:39.400Z,100709.16
2022-09-14T22:14:19.993Z,100702.44
2022-09-14T22:16:48.083Z,100702.25
2022-09-14T22:19:27.100Z,100705.47
2022-09-14T22:21:54.505Z,100683.63
2022-09-14T22:24:37.770Z,100701.56
2022-09-14T22:27:11.324Z,100708.13
2022-09-14T22:29:39.767Z,100711.91
2022-09-14T22:32:11.986Z,100722.72
2022-09-14T22:34:40.104Z,100725.28
2022-09-14T22:37:06.673Z,100703.84
2022-09-14T22:39:33.854Z,100708.97
2022-09-14T22:42:00.426Z,100715.81
2022-09-14T22:44:26.995Z,100708.31
2022-09-14T22:46:54.080Z,100704.56
2022-09-14T22:49:20.766Z,100706.06
2022-09-14T22:51:47.769Z,100704.41
2022-09-14T22:54:14.303Z,100713.50
2022-09-14T22:56:41.008Z,100708.75
2022-09-14T22:59:09.185Z,100705.69
2022-09-14T23:01:39.374Z,100702.63
2022-09-14T23:04:11.105Z,100708.88
2022-09-14T23:06:41.427Z,100703.72
2022-09-14T23:09:10.379Z,100708.75
2022-09-14T23:11:37.749Z,100710.34
2022-09-14T23:14:06.689Z,100713.44
2022-09-14T23:16:33.284Z,100729.44
2022-09-14T23:19:02.062Z,100729.44
2022-09-14T23:21:30.982Z,100723.97
2022-09-14T23:24:03.281Z,100733.91
2022-09-14T23:26:30.798Z,100735.81
2022-09-14T23:29:03.142Z,100730.31
2022-09-14T23:31:31.355Z,100736.16
2022-09-14T23:34:00.205Z,100738.91
2022-09-14T23:36:27.526Z,100729.16
2022-09-14T23:38:54.445Z,100747.50
2022-09-14T23:41:23.057Z,100738.59
2022-09-14T23:43:50.237Z,100739.44
2022-09-14T23:46:20.302Z,100729.88
2022-09-14T23:48:47.074Z,100727.81
2022-09-14T23:51:14.286Z,100739.44
2022-09-14T23:53:41.635Z,100738.59
2022-09-14T23:56:08.427Z,100746.31
2022-09-14T23:58:38.298Z,100736.66
